sensor_id;sensor_type;location;lat;lon;timestamp;P1;durP1;ratioP1;P2;durP2;ratioP2
40284;SDS011;25997;50.214;19.354;2023-04-03T00:02:50;4.22;;;3.63;;
40284;SDS011;25997;50.214;19.354;2023-04-03T00:05:52;5.78;;;4.35;;
40284;SDS011;25997;50.214;19.354;2023-04-03T00:08:55;4.63;;;3.05;;
40284;SDS011;25997;50.214;19.354;2023-04-03T00:11:58;5.95;;;4.32;;
40284;SDS011;25997;50.214;19.354;2023-04-03T00:15:02;4.75;;;3.47;;
40284;SDS011;25997;50.214;19.354;2023-04-03T00:18:04;4.97;;;3.80;;
40284;SDS011;25997;50.214;19.354;2023-04-03T00:21:07;4.55;;;3.58;;
40284;SDS011;25997;50.214;19.354;2023-04-03T00:24:11;5.43;;;3.47;;
40284;SDS011;25997;50.214;19.354;2023-04-03T00:27:14;4.45;;;3.55;;
40284;SDS011;25997;50.214;19.354;2023-04-03T00:30:19;5.05;;;3.30;;
40284;SDS011;25997;50.214;19.354;2023-04-03T00:33:23;3.97;;;3.20;;
40284;SDS011;25997;50.214;19.354;2023-04-03T00:36:26;3.45;;;2.85;;
40284;SDS011;25997;50.214;19.354;2023-04-03T00:39:28;4.60;;;2.85;;
40284;SDS011;25997;50.214;19.354;2023-04-03T00:42:30;4.10;;;2.85;;
40284;SDS011;25997;50.214;19.354;2023-04-03T00:45:35;5.05;;;2.63;;
40284;SDS011;25997;50.214;19.354;2023-04-03T00:48:40;3.50;;;2.47;;
40284;SDS011;25997;50.214;19.354;2023-04-03T00:51:44;2.97;;;1.92;;
40284;SDS011;25997;50.214;19.354;2023-04-03T00:54:48;3.40;;;2.10;;
40284;SDS011;25997;50.214;19.354;2023-04-03T00:57:52;3.67;;;2.20;;
40284;SDS011;25997;50.214;19.354;2023-04-03T01:00:58;3.55;;;2.30;;
40284;SDS011;25997;50.214;19.354;2023-04-03T01:04:05;4.20;;;2.15;;
40284;SDS011;25997;50.214;19.354;2023-04-03T01:07:09;4.38;;;2.40;;
40284;SDS011;25997;50.214;19.354;2023-04-03T01:10:14;4.63;;;2.40;;
40284;SDS011;25997;50.214;19.354;2023-04-03T01:13:21;3.25;;;2.38;;
40284;SDS011;25997;50.214;19.354;2023-04-03T01:16:27;3.58;;;2.30;;
40284;SDS011;25997;50.214;19.354;2023-04-03T01:19:32;5.05;;;3.15;;
40284;SDS011;25997;50.214;19.354;2023-04-03T01:22:39;3.75;;;2.70;;
40284;SDS011;25997;50.214;19.354;2023-04-03T01:25:46;6.10;;;3.08;;
40284;SDS011;25997;50.214;19.354;2023-04-03T01:28:51;4.43;;;2.90;;
40284;SDS011;25997;50.214;19.354;2023-04-03T01:31:57;3.78;;;2.58;;
40284;SDS011;25997;50.214;19.354;2023-04-03T01:35:01;5.53;;;2.75;;
40284;SDS011;25997;50.214;19.354;2023-04-03T01:38:03;4.15;;;3.35;;
40284;SDS011;25997;50.214;19.354;2023-04-03T01:41:06;4.60;;;3.40;;
40284;SDS011;25997;50.214;19.354;2023-04-03T01:44:09;3.63;;;2.80;;
40284;SDS011;25997;50.214;19.354;2023-04-03T01:47:13;3.80;;;3.30;;
40284;SDS011;25997;50.214;19.354;2023-04-03T01:50:16;5.18;;;3.67;;
40284;SDS011;25997;50.214;19.354;2023-04-03T01:53:19;4.85;;;3.63;;
40284;SDS011;25997;50.214;19.354;2023-04-03T01:56:21;5.40;;;3.50;;
40284;SDS011;25997;50.214;19.354;2023-04-03T01:59:24;4.50;;;3.65;;
40284;SDS011;25997;50.214;19.354;2023-04-03T02:02:28;4.93;;;3.75;;
40284;SDS011;25997;50.214;19.354;2023-04-03T02:05:31;5.70;;;4.28;;
40284;SDS011;25997;50.214;19.354;2023-04-03T02:08:33;6.65;;;4.38;;
40284;SDS011;25997;50.214;19.354;2023-04-03T02:11:36;5.95;;;4.30;;
40284;SDS011;25997;50.214;19.354;2023-04-03T02:14:38;5.00;;;4.20;;
40284;SDS011;25997;50.214;19.354;2023-04-03T02:17:47;6.10;;;4.78;;
40284;SDS011;25997;50.214;19.354;2023-04-03T02:20:50;5.90;;;4.78;;
40284;SDS011;25997;50.214;19.354;2023-04-03T02:23:52;6.70;;;4.43;;
40284;SDS011;25997;50.214;19.354;2023-04-03T02:26:54;6.20;;;4.80;;
40284;SDS011;25997;50.214;19.354;2023-04-03T02:29:57;6.03;;;4.78;;
40284;SDS011;25997;50.214;19.354;2023-04-03T02:33:01;5.70;;;5.05;;
40284;SDS011;25997;50.214;19.354;2023-04-03T02:36:03;10.20;;;7.57;;
40284;SDS011;25997;50.214;19.354;2023-04-03T02:39:08;5.93;;;3.78;;
40284;SDS011;25997;50.214;19.354;2023-04-03T02:42:11;9.80;;;5.95;;
40284;SDS011;25997;50.214;19.354;2023-04-03T02:45:13;14.55;;;7.57;;
40284;SDS011;25997;50.214;19.354;2023-04-03T02:48:18;11.00;;;6.28;;
40284;SDS011;25997;50.214;19.354;2023-04-03T02:51:20;11.43;;;5.70;;
40284;SDS011;25997;50.214;19.354;2023-04-03T02:54:23;11.80;;;6.30;;
40284;SDS011;25997;50.214;19.354;2023-04-03T02:57:31;8.70;;;4.35;;
40284;SDS011;25997;50.214;19.354;2023-04-03T03:00:33;7.32;;;4.85;;
40284;SDS011;25997;50.214;19.354;2023-04-03T03:03:37;3.50;;;2.75;;
40284;SDS011;25997;50.214;19.354;2023-04-03T03:06:40;6.55;;;4.70;;
40284;SDS011;25997;50.214;19.354;2023-04-03T03:09:42;5.30;;;4.10;;
40284;SDS011;25997;50.214;19.354;2023-04-03T03:12:44;5.63;;;4.20;;
40284;SDS011;25997;50.214;19.354;2023-04-03T03:15:47;9.65;;;5.75;;
40284;SDS011;25997;50.214;19.354;2023-04-03T03:18:51;5.07;;;3.67;;
40284;SDS011;25997;50.214;19.354;2023-04-03T03:21:54;6.53;;;4.93;;
40284;SDS011;25997;50.214;19.354;2023-04-03T03:24:57;6.28;;;4.25;;
40284;SDS011;25997;50.214;19.354;2023-04-03T03:27:59;5.45;;;4.10;;
40284;SDS011;25997;50.214;19.354;2023-04-03T03:31:02;7.13;;;4.38;;
40284;SDS011;25997;50.214;19.354;2023-04-03T03:34:08;6.55;;;4.32;;
40284;SDS011;25997;50.214;19.354;2023-04-03T03:37:10;6.05;;;4.63;;
40284;SDS011;25997;50.214;19.354;2023-04-03T03:40:13;6.72;;;5.35;;
40284;SDS011;25997;50.214;19.354;2023-04-03T03:43:16;7.00;;;4.82;;
40284;SDS011;25997;50.214;19.354;2023-04-03T03:46:20;5.93;;;4.30;;
40284;SDS011;25997;50.214;19.354;2023-04-03T03:49:24;4.93;;;3.80;;
40284;SDS011;25997;50.214;19.354;2023-04-03T03:52:27;5.75;;;5.05;;
40284;SDS011;25997;50.214;19.354;2023-04-03T03:55:30;7.32;;;4.90;;
40284;SDS011;25997;50.214;19.354;2023-04-03T03:58:33;7.05;;;5.00;;
40284;SDS011;25997;50.214;19.354;2023-04-03T04:01:36;7.50;;;4.80;;
40284;SDS011;25997;50.214;19.354;2023-04-03T04:04:40;5.65;;;4.32;;
40284;SDS011;25997;50.214;19.354;2023-04-03T04:07:43;5.53;;;3.65;;
40284;SDS011;25997;50.214;19.354;2023-04-03T04:10:46;5.32;;;4.00;;
40284;SDS011;25997;50.214;19.354;2023-04-03T04:13:50;5.88;;;4.05;;
40284;SDS011;25997;50.214;19.354;2023-04-03T04:16:55;5.65;;;3.72;;
40284;SDS011;25997;50.214;19.354;2023-04-03T04:20:01;5.47;;;4.07;;
40284;SDS011;25997;50.214;19.354;2023-04-03T04:23:06;5.32;;;4.32;;
40284;SDS011;25997;50.214;19.354;2023-04-03T04:26:10;7.40;;;4.20;;
40284;SDS011;25997;50.214;19.354;2023-04-03T04:29:14;5.10;;;3.85;;
40284;SDS011;25997;50.214;19.354;2023-04-03T04:32:18;6.03;;;4.13;;
40284;SDS011;25997;50.214;19.354;2023-04-03T04:35:22;5.32;;;4.00;;
40284;SDS011;25997;50.214;19.354;2023-04-03T04:38:26;7.35;;;4.38;;
40284;SDS011;25997;50.214;19.354;2023-04-03T04:41:29;7.18;;;6.28;;
40284;SDS011;25997;50.214;19.354;2023-04-03T04:44:32;5.55;;;5.05;;
40284;SDS011;25997;50.214;19.354;2023-04-03T04:47:35;9.35;;;5.80;;
40284;SDS011;25997;50.214;19.354;2023-04-03T04:50:39;5.22;;;3.95;;
40284;SDS011;25997;50.214;19.354;2023-04-03T04:53:42;7.47;;;3.88;;
40284;SDS011;25997;50.214;19.354;2023-04-03T04:56:47;5.25;;;3.65;;
40284;SDS011;25997;50.214;19.354;2023-04-03T04:59:50;6.78;;;5.28;;
40284;SDS011;25997;50.214;19.354;2023-04-03T05:02:52;6.57;;;4.97;;
40284;SDS011;25997;50.214;19.354;2023-04-03T05:05:56;5.45;;;3.75;;
40284;SDS011;25997;50.214;19.354;2023-04-03T05:08:59;26.85;;;16.63;;
40284;SDS011;25997;50.214;19.354;2023-04-03T05:12:02;9.90;;;7.28;;
40284;SDS011;25997;50.214;19.354;2023-04-03T05:15:12;9.75;;;6.45;;
40284;SDS011;25997;50.214;19.354;2023-04-03T05:18:15;9.00;;;6.28;;
40284;SDS011;25997;50.214;19.354;2023-04-03T05:21:20;9.35;;;7.65;;
40284;SDS011;25997;50.214;19.354;2023-04-03T05:24:25;4.90;;;3.28;;
40284;SDS011;25997;50.214;19.354;2023-04-03T05:27:27;5.50;;;3.50;;
40284;SDS011;25997;50.214;19.354;2023-04-03T05:30:32;7.75;;;3.47;;
40284;SDS011;25997;50.214;19.354;2023-04-03T05:33:36;9.02;;;4.53;;
40284;SDS011;25997;50.214;19.354;2023-04-03T05:36:43;7.40;;;5.03;;
40284;SDS011;25997;50.214;19.354;2023-04-03T05:39:48;4.43;;;2.95;;
40284;SDS011;25997;50.214;19.354;2023-04-03T05:42:51;7.07;;;3.72;;
40284;SDS011;25997;50.214;19.354;2023-04-03T05:45:55;5.97;;;4.50;;
40284;SDS011;25997;50.214;19.354;2023-04-03T05:49:00;7.68;;;5.30;;
40284;SDS011;25997;50.214;19.354;2023-04-03T05:52:08;10.30;;;4.85;;
40284;SDS011;25997;50.214;19.354;2023-04-03T05:55:18;8.27;;;4.75;;
40284;SDS011;25997;50.214;19.354;2023-04-03T05:58:21;6.70;;;2.80;;
40284;SDS011;25997;50.214;19.354;2023-04-03T06:01:26;5.43;;;3.45;;
40284;SDS011;25997;50.214;19.354;2023-04-03T06:04:29;6.13;;;4.10;;
40284;SDS011;25997;50.214;19.354;2023-04-03T06:07:34;6.55;;;3.65;;
40284;SDS011;25997;50.214;19.354;2023-04-03T06:10:37;5.57;;;3.10;;
40284;SDS011;25997;50.214;19.354;2023-04-03T06:13:40;6.78;;;3.75;;
40284;SDS011;25997;50.214;19.354;2023-04-03T06:16:43;9.75;;;5.78;;
40284;SDS011;25997;50.214;19.354;2023-04-03T06:19:46;6.60;;;3.38;;
40284;SDS011;25997;50.214;19.354;2023-04-03T06:22:50;6.72;;;3.30;;
40284;SDS011;25997;50.214;19.354;2023-04-03T06:25:53;6.95;;;4.47;;
40284;SDS011;25997;50.214;19.354;2023-04-03T06:28:55;5.68;;;3.75;;
40284;SDS011;25997;50.214;19.354;2023-04-03T06:31:58;4.57;;;3.33;;
40284;SDS011;25997;50.214;19.354;2023-04-03T06:35:00;5.35;;;3.58;;
40284;SDS011;25997;50.214;19.354;2023-04-03T06:38:05;7.65;;;3.42;;
40284;SDS011;25997;50.214;19.354;2023-04-03T06:41:10;6.93;;;3.58;;
40284;SDS011;25997;50.214;19.354;2023-04-03T06:44:12;5.57;;;3.00;;
40284;SDS011;25997;50.214;19.354;2023-04-03T06:47:16;7.43;;;4.47;;
40284;SDS011;25997;50.214;19.354;2023-04-03T06:50:19;6.25;;;3.63;;
40284;SDS011;25997;50.214;19.354;2023-04-03T06:53:23;7.45;;;4.00;;
40284;SDS011;25997;50.214;19.354;2023-04-03T06:56:25;8.07;;;4.45;;
40284;SDS011;25997;50.214;19.354;2023-04-03T06:59:28;7.28;;;4.28;;
40284;SDS011;25997;50.214;19.354;2023-04-03T07:02:31;6.75;;;3.05;;
40284;SDS011;25997;50.214;19.354;2023-04-03T07:05:33;7.72;;;3.25;;
40284;SDS011;25997;50.214;19.354;2023-04-03T07:08:37;7.68;;;3.97;;
40284;SDS011;25997;50.214;19.354;2023-04-03T07:11:39;6.40;;;3.65;;
40284;SDS011;25997;50.214;19.354;2023-04-03T07:14:42;7.15;;;3.75;;
40284;SDS011;25997;50.214;19.354;2023-04-03T07:17:44;7.47;;;3.63;;
40284;SDS011;25997;50.214;19.354;2023-04-03T07:20:48;5.82;;;3.10;;
40284;SDS011;25997;50.214;19.354;2023-04-03T07:23:52;9.00;;;3.75;;
40284;SDS011;25997;50.214;19.354;2023-04-03T07:26:55;6.75;;;4.45;;
40284;SDS011;25997;50.214;19.354;2023-04-03T07:29:57;5.68;;;3.25;;
40284;SDS011;25997;50.214;19.354;2023-04-03T07:33:00;4.93;;;2.88;;
40284;SDS011;25997;50.214;19.354;2023-04-03T07:36:02;6.82;;;3.33;;
40284;SDS011;25997;50.214;19.354;2023-04-03T07:39:09;9.02;;;4.47;;
40284;SDS011;25997;50.214;19.354;2023-04-03T07:42:11;8.52;;;5.18;;
40284;SDS011;25997;50.214;19.354;2023-04-03T07:45:14;7.97;;;5.00;;
40284;SDS011;25997;50.214;19.354;2023-04-03T07:48:18;5.07;;;2.90;;
40284;SDS011;25997;50.214;19.354;2023-04-03T07:51:21;4.88;;;2.90;;
40284;SDS011;25997;50.214;19.354;2023-04-03T07:54:26;4.90;;;2.95;;
40284;SDS011;25997;50.214;19.354;2023-04-03T07:57:29;6.85;;;3.60;;
40284;SDS011;25997;50.214;19.354;2023-04-03T08:00:31;5.22;;;2.95;;
40284;SDS011;25997;50.214;19.354;2023-04-03T08:03:34;5.07;;;3.15;;
40284;SDS011;25997;50.214;19.354;2023-04-03T08:06:38;5.70;;;3.00;;
40284;SDS011;25997;50.214;19.354;2023-04-03T08:09:42;4.72;;;2.80;;
40284;SDS011;25997;50.214;19.354;2023-04-03T08:12:45;4.80;;;2.53;;
40284;SDS011;25997;50.214;19.354;2023-04-03T08:15:48;6.07;;;2.10;;
40284;SDS011;25997;50.214;19.354;2023-04-03T08:18:51;6.10;;;3.28;;
40284;SDS011;25997;50.214;19.354;2023-04-03T08:21:53;5.65;;;2.67;;
40284;SDS011;25997;50.214;19.354;2023-04-03T08:24:58;4.47;;;2.42;;
40284;SDS011;25997;50.214;19.354;2023-04-03T08:28:02;3.63;;;2.10;;
40284;SDS011;25997;50.214;19.354;2023-04-03T08:31:05;4.65;;;3.03;;
40284;SDS011;25997;50.214;19.354;2023-04-03T08:34:11;7.35;;;2.75;;
40284;SDS011;25997;50.214;19.354;2023-04-03T08:37:13;7.60;;;3.28;;
40284;SDS011;25997;50.214;19.354;2023-04-03T08:40:19;4.32;;;2.53;;
40284;SDS011;25997;50.214;19.354;2023-04-03T08:43:27;5.43;;;2.63;;
40284;SDS011;25997;50.214;19.354;2023-04-03T08:46:40;4.07;;;2.47;;
40284;SDS011;25997;50.214;19.354;2023-04-03T08:49:51;6.75;;;3.00;;
40284;SDS011;25997;50.214;19.354;2023-04-03T08:52:56;4.30;;;2.35;;
40284;SDS011;25997;50.214;19.354;2023-04-03T08:56:03;4.32;;;2.78;;
40284;SDS011;25997;50.214;19.354;2023-04-03T08:59:10;4.90;;;2.90;;
40284;SDS011;25997;50.214;19.354;2023-04-03T09:02:21;4.68;;;2.53;;
40284;SDS011;25997;50.214;19.354;2023-04-03T09:05:31;6.53;;;3.22;;
40284;SDS011;25997;50.214;19.354;2023-04-03T09:08:44;7.18;;;3.60;;
40284;SDS011;25997;50.214;19.354;2023-04-03T09:11:55;6.70;;;3.00;;
40284;SDS011;25997;50.214;19.354;2023-04-03T09:15:12;5.10;;;3.00;;
40284;SDS011;25997;50.214;19.354;2023-04-03T09:18:19;4.50;;;2.58;;
40284;SDS011;25997;50.214;19.354;2023-04-03T09:21:25;5.07;;;2.60;;
40284;SDS011;25997;50.214;19.354;2023-04-03T09:24:34;5.70;;;3.00;;
40284;SDS011;25997;50.214;19.354;2023-04-03T09:27:40;5.07;;;3.22;;
40284;SDS011;25997;50.214;19.354;2023-04-03T09:30:42;11.65;;;6.47;;
40284;SDS011;25997;50.214;19.354;2023-04-03T09:33:45;10.02;;;6.63;;
40284;SDS011;25997;50.214;19.354;2023-04-03T09:36:48;5.60;;;3.90;;
40284;SDS011;25997;50.214;19.354;2023-04-03T09:39:53;5.80;;;3.05;;
40284;SDS011;25997;50.214;19.354;2023-04-03T09:42:58;6.72;;;3.65;;
40284;SDS011;25997;50.214;19.354;2023-04-03T09:46:19;5.95;;;2.63;;
40284;SDS011;25997;50.214;19.354;2023-04-03T09:49:30;4.35;;;2.95;;
40284;SDS011;25997;50.214;19.354;2023-04-03T09:52:32;6.57;;;3.63;;
40284;SDS011;25997;50.214;19.354;2023-04-03T09:55:41;5.55;;;3.53;;
40284;SDS011;25997;50.214;19.354;2023-04-03T09:58:47;6.40;;;3.45;;
40284;SDS011;25997;50.214;19.354;2023-04-03T10:01:58;5.05;;;2.88;;
40284;SDS011;25997;50.214;19.354;2023-04-03T10:05:01;4.47;;;2.95;;
40284;SDS011;25997;50.214;19.354;2023-04-03T10:11:25;3.92;;;2.88;;
40284;SDS011;25997;50.214;19.354;2023-04-03T10:14:30;5.50;;;2.05;;
40284;SDS011;25997;50.214;19.354;2023-04-03T10:17:36;5.15;;;3.55;;
40284;SDS011;25997;50.214;19.354;2023-04-03T10:20:48;6.78;;;3.33;;
40284;SDS011;25997;50.214;19.354;2023-04-03T10:23:54;7.13;;;3.63;;
40284;SDS011;25997;50.214;19.354;2023-04-03T10:27:05;5.15;;;3.05;;
40284;SDS011;25997;50.214;19.354;2023-04-03T10:30:20;4.50;;;2.65;;
40284;SDS011;25997;50.214;19.354;2023-04-03T10:33:36;7.30;;;3.80;;
40284;SDS011;25997;50.214;19.354;2023-04-03T10:36:56;3.72;;;2.20;;
40284;SDS011;25997;50.214;19.354;2023-04-03T10:40:12;5.82;;;3.53;;
40284;SDS011;25997;50.214;19.354;2023-04-03T10:43:27;4.03;;;2.63;;
40284;SDS011;25997;50.214;19.354;2023-04-03T10:46:36;3.30;;;2.13;;
40284;SDS011;25997;50.214;19.354;2023-04-03T10:49:44;3.70;;;1.95;;
40284;SDS011;25997;50.214;19.354;2023-04-03T10:52:57;2.97;;;1.98;;
40284;SDS011;25997;50.214;19.354;2023-04-03T10:56:10;4.53;;;2.10;;
40284;SDS011;25997;50.214;19.354;2023-04-03T10:59:22;5.55;;;3.67;;
40284;SDS011;25997;50.214;19.354;2023-04-03T11:02:32;4.03;;;2.53;;
40284;SDS011;25997;50.214;19.354;2023-04-03T11:05:39;7.20;;;5.43;;
40284;SDS011;25997;50.214;19.354;2023-04-03T11:08:44;7.40;;;3.97;;
40284;SDS011;25997;50.214;19.354;2023-04-03T11:11:53;12.40;;;9.82;;
40284;SDS011;25997;50.214;19.354;2023-04-03T11:14:59;4.35;;;3.50;;
40284;SDS011;25997;50.214;19.354;2023-04-03T11:18:06;4.05;;;2.50;;
40284;SDS011;25997;50.214;19.354;2023-04-03T11:21:13;5.90;;;2.97;;
40284;SDS011;25997;50.214;19.354;2023-04-03T11:24:22;4.22;;;2.33;;
40284;SDS011;25997;50.214;19.354;2023-04-03T11:27:28;3.88;;;2.95;;
40284;SDS011;25997;50.214;19.354;2023-04-03T11:30:39;3.92;;;3.25;;
40284;SDS011;25997;50.214;19.354;2023-04-03T11:36:58;7.85;;;5.03;;
40284;SDS011;25997;50.214;19.354;2023-04-03T11:40:03;4.97;;;2.33;;
40284;SDS011;25997;50.214;19.354;2023-04-03T11:43:18;3.22;;;2.05;;
40284;SDS011;25997;50.214;19.354;2023-04-03T11:50:01;5.97;;;3.60;;
40284;SDS011;25997;50.214;19.354;2023-04-03T11:56:36;7.00;;;4.25;;
40284;SDS011;25997;50.214;19.354;2023-04-03T11:59:38;7.05;;;4.00;;
40284;SDS011;25997;50.214;19.354;2023-04-03T12:02:42;5.60;;;3.60;;
40284;SDS011;25997;50.214;19.354;2023-04-03T12:05:46;3.92;;;2.55;;
40284;SDS011;25997;50.214;19.354;2023-04-03T12:08:49;6.18;;;3.70;;
40284;SDS011;25997;50.214;19.354;2023-04-03T12:11:55;5.25;;;3.28;;
40284;SDS011;25997;50.214;19.354;2023-04-03T12:15:11;4.63;;;2.33;;
40284;SDS011;25997;50.214;19.354;2023-04-03T12:22:16;6.13;;;3.53;;
40284;SDS011;25997;50.214;19.354;2023-04-03T12:25:45;4.80;;;2.85;;
40284;SDS011;25997;50.214;19.354;2023-04-03T12:31:58;3.95;;;2.53;;
40284;SDS011;25997;50.214;19.354;2023-04-03T12:35:18;6.30;;;3.00;;
40284;SDS011;25997;50.214;19.354;2023-04-03T12:38:36;7.70;;;3.72;;
40284;SDS011;25997;50.214;19.354;2023-04-03T12:41:50;4.95;;;3.33;;
40284;SDS011;25997;50.214;19.354;2023-04-03T12:45:00;4.88;;;2.80;;
40284;SDS011;25997;50.214;19.354;2023-04-03T12:48:13;5.45;;;2.97;;
40284;SDS011;25997;50.214;19.354;2023-04-03T12:51:19;7.88;;;5.07;;
40284;SDS011;25997;50.214;19.354;2023-04-03T12:54:27;7.15;;;3.75;;
40284;SDS011;25997;50.214;19.354;2023-04-03T12:57:34;5.10;;;3.83;;
40284;SDS011;25997;50.214;19.354;2023-04-03T13:00:37;10.27;;;4.85;;
40284;SDS011;25997;50.214;19.354;2023-04-03T13:03:40;5.40;;;4.10;;
40284;SDS011;25997;50.214;19.354;2023-04-03T13:06:46;6.50;;;3.28;;
40284;SDS011;25997;50.214;19.354;2023-04-03T13:09:56;4.93;;;3.05;;
40284;SDS011;25997;50.214;19.354;2023-04-03T13:13:06;5.38;;;3.40;;
40284;SDS011;25997;50.214;19.354;2023-04-03T13:16:11;6.50;;;5.00;;
40284;SDS011;25997;50.214;19.354;2023-04-03T13:19:16;6.53;;;3.30;;
40284;SDS011;25997;50.214;19.354;2023-04-03T13:22:22;7.57;;;4.18;;
40284;SDS011;25997;50.214;19.354;2023-04-03T13:25:32;8.77;;;3.67;;
40284;SDS011;25997;50.214;19.354;2023-04-03T13:28:36;4.75;;;3.10;;
40284;SDS011;25997;50.214;19.354;2023-04-03T13:31:41;7.03;;;3.47;;
40284;SDS011;25997;50.214;19.354;2023-04-03T13:34:43;7.95;;;4.40;;
40284;SDS011;25997;50.214;19.354;2023-04-03T13:37:53;7.68;;;5.50;;
40284;SDS011;25997;50.214;19.354;2023-04-03T13:40:58;8.23;;;5.75;;
40284;SDS011;25997;50.214;19.354;2023-04-03T13:44:16;7.47;;;4.70;;
40284;SDS011;25997;50.214;19.354;2023-04-03T13:47:37;6.07;;;4.53;;
40284;SDS011;25997;50.214;19.354;2023-04-03T13:50:51;5.78;;;3.50;;
40284;SDS011;25997;50.214;19.354;2023-04-03T13:53:57;5.70;;;2.92;;
40284;SDS011;25997;50.214;19.354;2023-04-03T13:57:03;3.78;;;2.53;;
40284;SDS011;25997;50.214;19.354;2023-04-03T14:00:28;10.98;;;6.38;;
40284;SDS011;25997;50.214;19.354;2023-04-03T14:03:39;5.25;;;3.05;;
40284;SDS011;25997;50.214;19.354;2023-04-03T14:06:44;5.00;;;3.38;;
40284;SDS011;25997;50.214;19.354;2023-04-03T14:09:47;6.28;;;3.38;;
40284;SDS011;25997;50.214;19.354;2023-04-03T14:12:51;6.18;;;4.85;;
40284;SDS011;25997;50.214;19.354;2023-04-03T14:15:54;12.27;;;6.88;;
40284;SDS011;25997;50.214;19.354;2023-04-03T14:18:56;7.45;;;4.60;;
40284;SDS011;25997;50.214;19.354;2023-04-03T14:21:59;4.82;;;3.58;;
40284;SDS011;25997;50.214;19.354;2023-04-03T14:25:02;4.03;;;2.67;;
40284;SDS011;25997;50.214;19.354;2023-04-03T14:28:14;5.90;;;4.53;;
40284;SDS011;25997;50.214;19.354;2023-04-03T14:31:18;4.72;;;3.08;;
40284;SDS011;25997;50.214;19.354;2023-04-03T14:34:22;4.35;;;3.13;;
40284;SDS011;25997;50.214;19.354;2023-04-03T14:37:25;5.53;;;4.07;;
40284;SDS011;25997;50.214;19.354;2023-04-03T14:40:30;6.25;;;3.38;;
40284;SDS011;25997;50.214;19.354;2023-04-03T14:43:34;5.28;;;3.28;;
40284;SDS011;25997;50.214;19.354;2023-04-03T14:46:36;4.18;;;3.13;;
40284;SDS011;25997;50.214;19.354;2023-04-03T14:49:41;9.40;;;6.45;;
40284;SDS011;25997;50.214;19.354;2023-04-03T14:52:44;11.43;;;7.05;;
40284;SDS011;25997;50.214;19.354;2023-04-03T14:55:47;5.80;;;3.47;;
40284;SDS011;25997;50.214;19.354;2023-04-03T14:58:53;6.75;;;4.15;;
40284;SDS011;25997;50.214;19.354;2023-04-03T15:01:58;6.22;;;4.40;;
40284;SDS011;25997;50.214;19.354;2023-04-03T15:05:01;6.32;;;4.10;;
40284;SDS011;25997;50.214;19.354;2023-04-03T15:08:08;6.25;;;4.38;;
40284;SDS011;25997;50.214;19.354;2023-04-03T15:11:21;8.90;;;6.50;;
40284;SDS011;25997;50.214;19.354;2023-04-03T15:14:24;6.35;;;4.20;;
40284;SDS011;25997;50.214;19.354;2023-04-03T15:17:27;13.77;;;5.20;;
40284;SDS011;25997;50.214;19.354;2023-04-03T15:20:29;10.55;;;6.82;;
40284;SDS011;25997;50.214;19.354;2023-04-03T15:23:33;14.55;;;10.20;;
40284;SDS011;25997;50.214;19.354;2023-04-03T15:26:36;13.80;;;9.45;;
40284;SDS011;25997;50.214;19.354;2023-04-03T15:29:40;7.72;;;5.20;;
40284;SDS011;25997;50.214;19.354;2023-04-03T15:32:44;12.27;;;5.95;;
40284;SDS011;25997;50.214;19.354;2023-04-03T15:35:47;10.68;;;5.90;;
40284;SDS011;25997;50.214;19.354;2023-04-03T15:38:49;7.50;;;3.72;;
40284;SDS011;25997;50.214;19.354;2023-04-03T15:41:52;9.65;;;4.88;;
40284;SDS011;25997;50.214;19.354;2023-04-03T15:44:56;7.40;;;3.80;;
40284;SDS011;25997;50.214;19.354;2023-04-03T15:47:59;8.30;;;3.28;;
40284;SDS011;25997;50.214;19.354;2023-04-03T15:51:02;7.93;;;4.50;;
40284;SDS011;25997;50.214;19.354;2023-04-03T15:54:04;8.95;;;5.95;;
40284;SDS011;25997;50.214;19.354;2023-04-03T15:57:07;5.72;;;3.58;;
40284;SDS011;25997;50.214;19.354;2023-04-03T16:00:11;8.20;;;4.55;;
40284;SDS011;25997;50.214;19.354;2023-04-03T16:03:15;7.22;;;4.18;;
40284;SDS011;25997;50.214;19.354;2023-04-03T16:06:20;5.57;;;3.28;;
40284;SDS011;25997;50.214;19.354;2023-04-03T16:09:22;6.13;;;3.22;;
40284;SDS011;25997;50.214;19.354;2023-04-03T16:12:25;6.38;;;3.80;;
40284;SDS011;25997;50.214;19.354;2023-04-03T16:15:29;7.97;;;5.85;;
40284;SDS011;25997;50.214;19.354;2023-04-03T16:18:32;9.25;;;6.05;;
40284;SDS011;25997;50.214;19.354;2023-04-03T16:21:37;7.97;;;5.63;;
40284;SDS011;25997;50.214;19.354;2023-04-03T16:24:39;8.90;;;4.70;;
40284;SDS011;25997;50.214;19.354;2023-04-03T16:27:42;7.50;;;5.00;;
40284;SDS011;25997;50.214;19.354;2023-04-03T16:30:46;9.38;;;4.63;;
40284;SDS011;25997;50.214;19.354;2023-04-03T16:33:49;6.10;;;4.57;;
40284;SDS011;25997;50.214;19.354;2023-04-03T16:36:52;7.93;;;5.65;;
40284;SDS011;25997;50.214;19.354;2023-04-03T16:39:54;16.13;;;11.25;;
40284;SDS011;25997;50.214;19.354;2023-04-03T16:42:57;6.93;;;4.70;;
40284;SDS011;25997;50.214;19.354;2023-04-03T16:46:01;11.02;;;6.50;;
40284;SDS011;25997;50.214;19.354;2023-04-03T16:49:04;10.10;;;5.22;;
40284;SDS011;25997;50.214;19.354;2023-04-03T16:52:06;9.80;;;4.95;;
40284;SDS011;25997;50.214;19.354;2023-04-03T16:55:09;8.45;;;5.18;;
40284;SDS011;25997;50.214;19.354;2023-04-03T16:58:12;13.57;;;9.35;;
40284;SDS011;25997;50.214;19.354;2023-04-03T17:01:17;20.92;;;13.32;;
40284;SDS011;25997;50.214;19.354;2023-04-03T17:04:21;8.38;;;5.50;;
40284;SDS011;25997;50.214;19.354;2023-04-03T17:07:24;7.97;;;5.10;;
40284;SDS011;25997;50.214;19.354;2023-04-03T17:10:27;10.20;;;5.80;;
40284;SDS011;25997;50.214;19.354;2023-04-03T17:13:30;14.93;;;10.48;;
40284;SDS011;25997;50.214;19.354;2023-04-03T17:16:35;14.02;;;9.90;;
40284;SDS011;25997;50.214;19.354;2023-04-03T17:19:39;12.32;;;9.45;;
40284;SDS011;25997;50.214;19.354;2023-04-03T17:22:43;8.00;;;5.35;;
40284;SDS011;25997;50.214;19.354;2023-04-03T17:25:46;10.38;;;7.00;;
40284;SDS011;25997;50.214;19.354;2023-04-03T17:28:48;10.75;;;6.70;;
40284;SDS011;25997;50.214;19.354;2023-04-03T17:31:52;10.80;;;5.95;;
40284;SDS011;25997;50.214;19.354;2023-04-03T17:34:55;6.70;;;4.38;;
40284;SDS011;25997;50.214;19.354;2023-04-03T17:37:58;9.13;;;5.32;;
40284;SDS011;25997;50.214;19.354;2023-04-03T17:41:01;9.63;;;6.18;;
40284;SDS011;25997;50.214;19.354;2023-04-03T17:44:06;10.10;;;6.30;;
40284;SDS011;25997;50.214;19.354;2023-04-03T17:47:10;10.32;;;5.30;;
40284;SDS011;25997;50.214;19.354;2023-04-03T17:50:12;8.63;;;4.32;;
40284;SDS011;25997;50.214;19.354;2023-04-03T17:53:15;5.93;;;4.22;;
40284;SDS011;25997;50.214;19.354;2023-04-03T17:56:19;6.97;;;4.25;;
40284;SDS011;25997;50.214;19.354;2023-04-03T17:59:22;43.70;;;27.95;;
40284;SDS011;25997;50.214;19.354;2023-04-03T18:02:27;50.53;;;37.80;;
40284;SDS011;25997;50.214;19.354;2023-04-03T18:05:29;38.90;;;24.30;;
40284;SDS011;25997;50.214;19.354;2023-04-03T18:08:34;15.27;;;9.20;;
40284;SDS011;25997;50.214;19.354;2023-04-03T18:11:39;19.02;;;11.48;;
40284;SDS011;25997;50.214;19.354;2023-04-03T18:14:43;13.93;;;7.63;;
40284;SDS011;25997;50.214;19.354;2023-04-03T18:17:48;13.45;;;10.77;;
40284;SDS011;25997;50.214;19.354;2023-04-03T18:20:55;12.55;;;10.48;;
40284;SDS011;25997;50.214;19.354;2023-04-03T18:23:58;11.65;;;8.15;;
40284;SDS011;25997;50.214;19.354;2023-04-03T18:27:03;13.38;;;9.48;;
40284;SDS011;25997;50.214;19.354;2023-04-03T18:30:08;9.73;;;7.55;;
40284;SDS011;25997;50.214;19.354;2023-04-03T18:33:15;13.43;;;8.73;;
40284;SDS011;25997;50.214;19.354;2023-04-03T18:36:18;17.02;;;10.25;;
40284;SDS011;25997;50.214;19.354;2023-04-03T18:39:20;11.52;;;8.38;;